createdAt,value
2017-10-16T00:01:46.607Z,97533.59
2017-10-16T00:04:12.404Z,97539.63
2017-10-16T00:07:01.976Z,97538.09
2017-10-16T00:09:59.019Z,97536.67
2017-10-16T00:12:56.279Z,97543.24
2017-10-16T00:25:43.383Z,97552.05
2017-10-16T00:28:32.625Z,97552.32
2017-10-16T00:31:30.495Z,97542.88
2017-10-16T00:34:27.631Z,97544.59
2017-10-16T00:47:26.411Z,97544.61
2017-10-16T00:50:15.343Z,97540.67
2017-10-16T00:53:12.999Z,97539.11
2017-10-16T00:56:10.536Z,97544.73
2017-10-16T00:59:08.109Z,97543.55
2017-10-16T01:08:59.584Z,97538.48
2017-10-16T01:11:48.962Z,97540.84
2017-10-16T01:14:46.675Z,97542.44
2017-10-16T01:17:44.857Z,97541.59
2017-10-16T01:20:42.895Z,97536.42
2017-10-16T01:23:39.907Z,97526.69
2017-10-16T01:26:37.208Z,97532.72
2017-10-16T01:32:24.343Z,97525.73
2017-10-16T01:35:13.367Z,97525.25
2017-10-16T01:38:10.431Z,97520.58
2017-10-16T01:41:08.244Z,97512.30
2017-10-16T01:44:05.396Z,97515.66
2017-10-16T01:53:55.328Z,97509.94
2017-10-16T01:56:44.705Z,97506.23
2017-10-16T01:59:42.361Z,97505.48
2017-10-16T02:02:40.217Z,97511.08
2017-10-16T02:05:37.444Z,97506.97
2017-10-16T02:15:28.123Z,97510.90
2017-10-16T02:18:18.111Z,97506.80
2017-10-16T02:21:15.157Z,97510.42
2017-10-16T02:24:12.402Z,97511.41
2017-10-16T02:27:10.432Z,97504.02
2017-10-16T02:30:08.267Z,97502.16
2017-10-16T02:33:06.262Z,97500.91
2017-10-16T02:36:03.380Z,97502.16
2017-10-16T02:38:29.147Z,97506.81
2017-10-16T02:41:19.104Z,97498.93
2017-10-16T02:44:16.424Z,97504.52
2017-10-16T03:00:08.042Z,97502.00
2017-10-16T03:19:45.791Z,97496.97
2017-10-16T03:22:12.438Z,97491.98
2017-10-16T03:41:48.648Z,97489.40
2017-10-16T03:44:14.444Z,97481.44
2017-10-16T04:03:50.395Z,97476.84
2017-10-16T04:06:16.167Z,97478.82
2017-10-16T04:09:05.335Z,97469.49
2017-10-16T04:12:02.960Z,97468.38
2017-10-16T04:15:00.665Z,97470.97
2017-10-16T04:17:58.442Z,97472.59
2017-10-16T04:20:56.184Z,97479.06
2017-10-16T04:40:07.961Z,97487.25
2017-10-16T04:52:38.499Z,97492.22
2017-10-16T05:15:04.155Z,97492.92
2017-10-16T05:17:53.406Z,97492.05
2017-10-16T05:20:50.607Z,97492.13
2017-10-16T05:23:48.199Z,97496.05
2017-10-16T05:36:45.832Z,97493.68
2017-10-16T05:39:35.096Z,97488.83
2017-10-16T05:58:49.179Z,97501.30
2017-10-16T06:01:38.578Z,97501.61
2017-10-16T06:04:36.511Z,97499.47
2017-10-16T06:07:33.472Z,97516.44
2017-10-16T06:10:30.382Z,97505.15
2017-10-16T06:13:27.420Z,97510.81
2017-10-16T06:16:24.499Z,97507.45
2017-10-16T06:19:22.628Z,97506.09
2017-10-16T06:21:48.399Z,97503.91
2017-10-16T06:24:38.015Z,97510.20
2017-10-16T06:27:35.515Z,97512.60
2017-10-16T06:30:33.446Z,97515.06
2017-10-16T06:33:31.627Z,97518.13
2017-10-16T06:52:44.159Z,97528.45
2017-10-16T06:55:41.512Z,97535.29
2017-10-16T06:58:39.261Z,97531.56
2017-10-16T07:01:36.587Z,97536.59
2017-10-16T07:04:33.651Z,97529.34
2017-10-16T07:07:31.480Z,97530.89
2017-10-16T07:09:57.249Z,97539.20
2017-10-16T07:12:46.360Z,97548.98
2017-10-16T07:21:07.774Z,97541.48
2017-10-16T07:23:33.532Z,97547.51
2017-10-16T07:25:59.288Z,97551.50
2017-10-16T07:28:25.066Z,97543.44
2017-10-16T07:30:50.824Z,97549.37
2017-10-16T07:33:16.603Z,97551.20
2017-10-16T07:35:42.402Z,97537.04
2017-10-16T07:38:08.167Z,97545.72
2017-10-16T07:40:33.956Z,97542.41
2017-10-16T07:42:59.766Z,97542.02
2017-10-16T07:45:25.540Z,97542.74
2017-10-16T07:47:51.283Z,97535.27
2017-10-16T07:50:17.060Z,97535.97
2017-10-16T07:52:42.867Z,97535.47
2017-10-16T07:55:08.620Z,97533.30
2017-10-16T07:57:34.396Z,97531.70
2017-10-16T08:00:00.132Z,97533.20
2017-10-16T08:02:25.895Z,97530.00
2017-10-16T08:04:51.636Z,97541.31
2017-10-16T08:07:17.416Z,97535.48
2017-10-16T08:09:43.158Z,97541.77
2017-10-16T08:12:08.921Z,97543.13
2017-10-16T08:14:34.696Z,97547.52
2017-10-16T08:17:00.455Z,97541.59
2017-10-16T08:19:26.239Z,97541.76
2017-10-16T08:21:51.992Z,97538.34
2017-10-16T08:24:17.775Z,97538.39
2017-10-16T08:26:43.539Z,97532.89
2017-10-16T08:29:09.316Z,97535.41
2017-10-16T08:31:35.102Z,97535.38
2017-10-16T08:34:00.864Z,97537.03
2017-10-16T08:36:26.646Z,97532.30
2017-10-16T08:38:52.418Z,97531.80
2017-10-16T08:41:18.197Z,97532.89
2017-10-16T08:43:43.983Z,97534.91
2017-10-16T08:46:09.741Z,97532.44
2017-10-16T08:48:35.556Z,97531.30
2017-10-16T08:51:01.312Z,97541.02
2017-10-16T08:53:27.076Z,97537.19
2017-10-16T08:55:52.872Z,97528.20
2017-10-16T08:58:18.630Z,97539.45
2017-10-16T09:00:44.491Z,97531.41
2017-10-16T09:03:10.272Z,97534.00
2017-10-16T09:05:36.041Z,97530.03
2017-10-16T09:08:01.836Z,97526.77
2017-10-16T09:10:27.611Z,97532.45
2017-10-16T09:12:53.418Z,97526.53
2017-10-16T09:15:19.187Z,97528.18
2017-10-16T09:17:44.967Z,97524.52
2017-10-16T09:20:10.802Z,97521.61
2017-10-16T09:22:36.613Z,97527.30
2017-10-16T09:25:02.362Z,97522.84
2017-10-16T09:27:28.175Z,97520.45
2017-10-16T09:29:53.939Z,97518.68
2017-10-16T09:32:19.699Z,97516.14
2017-10-16T09:34:45.474Z,97513.90
2017-10-16T09:37:11.259Z,97526.19
2017-10-16T09:39:37.076Z,97520.02
2017-10-16T09:42:02.840Z,97522.22
2017-10-16T09:44:28.627Z,97518.50
2017-10-16T09:46:54.388Z,97514.31
2017-10-16T09:49:20.182Z,97511.84
2017-10-16T09:51:45.950Z,97509.23
2017-10-16T09:54:11.718Z,97515.52
2017-10-16T09:56:37.461Z,97509.41
2017-10-16T09:59:03.324Z,97511.08
2017-10-16T10:01:29.107Z,97516.55
2017-10-16T10:03:54.892Z,97507.78
2017-10-16T10:06:20.668Z,97505.81
2017-10-16T10:08:46.446Z,97504.91
2017-10-16T10:11:12.248Z,97506.75
2017-10-16T10:13:38.028Z,97498.75
2017-10-16T10:16:03.807Z,97499.72
2017-10-16T10:18:29.584Z,97497.41
2017-10-16T10:20:55.355Z,97498.02
2017-10-16T10:23:21.134Z,97493.04
2017-10-16T10:25:46.911Z,97489.89
2017-10-16T10:28:12.695Z,97491.59
2017-10-16T10:30:38.436Z,97494.64
2017-10-16T10:33:04.183Z,97489.08
2017-10-16T10:35:29.951Z,97491.19
2017-10-16T10:37:55.697Z,97487.23
2017-10-16T10:40:21.473Z,97487.59
2017-10-16T10:42:47.226Z,97486.91
2017-10-16T10:45:13.011Z,97480.49
2017-10-16T10:47:38.782Z,97485.90
2017-10-16T10:50:04.543Z,97479.04
2017-10-16T10:52:30.315Z,97475.49
2017-10-16T10:54:56.079Z,97474.11
2017-10-16T10:57:21.847Z,97481.06
2017-10-16T10:59:47.623Z,97476.50
2017-10-16T11:02:13.382Z,97472.42
2017-10-16T11:04:39.183Z,97466.75
2017-10-16T11:07:04.952Z,97465.05
2017-10-16T11:09:30.751Z,97465.81
2017-10-16T11:11:56.525Z,97466.57
2017-10-16T11:14:22.299Z,97472.28
2017-10-16T11:16:48.096Z,97465.45
2017-10-16T11:19:13.851Z,97460.16
2017-10-16T11:21:39.639Z,97465.58
2017-10-16T11:24:05.431Z,97461.13
2017-10-16T11:26:31.234Z,97454.80
2017-10-16T11:28:57.040Z,97460.72
2017-10-16T11:31:22.810Z,97462.39
2017-10-16T11:33:48.607Z,97458.22
2017-10-16T11:36:14.359Z,97456.63
2017-10-16T11:38:40.111Z,97459.70
2017-10-16T11:41:05.919Z,97462.13
2017-10-16T11:43:31.702Z,97457.65
2017-10-16T11:45:57.485Z,97454.69
2017-10-16T11:48:23.315Z,97448.27
2017-10-16T11:50:49.083Z,97451.27
2017-10-16T11:53:14.884Z,97444.85
2017-10-16T11:55:40.678Z,97440.26
2017-10-16T11:58:06.478Z,97437.73
2017-10-16T12:00:32.252Z,97436.92
2017-10-16T12:02:58.083Z,97436.94
2017-10-16T12:05:23.904Z,97432.87
2017-10-16T12:07:49.738Z,97432.91
2017-10-16T12:10:15.582Z,97436.57
2017-10-16T12:12:41.342Z,97430.00
2017-10-16T12:15:07.253Z,97432.28
2017-10-16T12:17:33.067Z,97428.50
2017-10-16T12:19:58.853Z,97428.80
2017-10-16T12:22:24.698Z,97426.61
2017-10-16T12:24:50.484Z,97436.00
2017-10-16T12:27:16.255Z,97434.05
2017-10-16T12:29:42.043Z,97425.17
2017-10-16T12:32:07.840Z,97427.83
2017-10-16T12:34:33.639Z,97424.48
2017-10-16T12:36:59.396Z,97425.08
2017-10-16T12:39:25.200Z,97420.62
2017-10-16T12:41:51.004Z,97420.89
2017-10-16T12:44:16.807Z,97414.05
2017-10-16T12:46:42.595Z,97417.53
2017-10-16T12:49:08.374Z,97420.77
2017-10-16T12:51:34.175Z,97423.38
2017-10-16T12:53:59.963Z,97425.30
2017-10-16T12:56:25.738Z,97420.27
2017-10-16T12:58:51.523Z,97412.88
2017-10-16T13:01:17.366Z,97417.99
2017-10-16T13:03:43.148Z,97415.35
2017-10-16T13:06:08.947Z,97423.55
2017-10-16T13:08:34.720Z,97415.88
2017-10-16T13:11:00.500Z,97416.39
2017-10-16T13:13:26.282Z,97412.17
2017-10-16T13:15:52.080Z,97410.45
2017-10-16T13:18:17.879Z,97412.93
2017-10-16T13:20:43.680Z,97413.67
2017-10-16T13:23:09.443Z,97405.43
2017-10-16T13:25:35.243Z,97402.91
2017-10-16T13:28:01.038Z,97394.48
2017-10-16T13:30:26.787Z,97392.94
2017-10-16T13:32:52.591Z,97392.57
2017-10-16T13:35:18.449Z,97398.20
2017-10-16T13:37:44.267Z,97395.98
2017-10-16T13:40:10.036Z,97395.31
2017-10-16T13:42:35.867Z,97389.01
2017-10-16T13:45:01.648Z,97391.89
2017-10-16T13:47:27.465Z,97392.22
2017-10-16T13:49:53.299Z,97393.58
2017-10-16T13:52:19.092Z,97387.30
2017-10-16T13:54:44.915Z,97385.50
2017-10-16T13:57:10.729Z,97390.36
2017-10-16T13:59:36.571Z,97389.58
2017-10-16T14:02:02.402Z,97393.38
2017-10-16T14:04:28.210Z,97393.53
2017-10-16T14:06:54.036Z,97396.72
2017-10-16T14:09:19.811Z,97391.70
2017-10-16T14:11:45.617Z,97388.48
2017-10-16T14:14:11.419Z,97383.57
2017-10-16T14:16:37.204Z,97381.50
2017-10-16T14:19:02.987Z,97381.64
2017-10-16T14:21:28.827Z,97381.34
2017-10-16T14:23:54.635Z,97373.36
2017-10-16T14:26:20.472Z,97375.88
2017-10-16T14:28:46.280Z,97380.26
2017-10-16T14:31:12.071Z,97373.00
2017-10-16T14:33:37.884Z,97376.15
2017-10-16T14:36:03.684Z,97375.09
2017-10-16T14:38:29.443Z,97371.16
2017-10-16T14:40:55.258Z,97368.25
2017-10-16T14:43:21.030Z,97372.37
2017-10-16T14:45:46.872Z,97370.44
2017-10-16T14:48:12.711Z,97365.56
2017-10-16T14:50:38.511Z,97371.98
2017-10-16T14:53:04.319Z,97364.56
2017-10-16T14:55:30.105Z,97365.83
2017-10-16T14:57:55.882Z,97363.64
2017-10-16T15:00:21.712Z,97357.98
2017-10-16T15:02:47.537Z,97359.97
2017-10-16T15:05:13.362Z,97362.02
2017-10-16T15:07:39.181Z,97362.13
2017-10-16T15:10:04.971Z,97364.62
2017-10-16T15:12:30.754Z,97364.01
2017-10-16T15:14:56.547Z,97358.00
2017-10-16T15:17:22.398Z,97361.75
2017-10-16T15:19:48.139Z,97360.56
2017-10-16T15:22:15.310Z,97354.39
2017-10-16T15:24:41.135Z,97357.18
2017-10-16T15:27:06.954Z,97351.25
2017-10-16T15:29:32.708Z,97344.52
2017-10-16T15:31:58.542Z,97338.73
2017-10-16T15:34:24.343Z,97339.45
2017-10-16T15:36:50.111Z,97348.10
2017-10-16T15:39:15.924Z,97342.44
2017-10-16T15:41:41.758Z,97342.34
2017-10-16T15:44:07.551Z,97342.53
2017-10-16T15:46:33.358Z,97341.86
2017-10-16T15:48:59.147Z,97335.98
2017-10-16T15:51:24.967Z,97338.15
2017-10-16T15:53:50.848Z,97345.88
2017-10-16T15:56:16.610Z,97352.70
2017-10-16T15:58:42.375Z,97349.20
2017-10-16T16:01:08.175Z,97350.67
2017-10-16T16:03:34.018Z,97349.84
2017-10-16T16:05:59.807Z,97348.22
2017-10-16T16:08:25.562Z,97351.58
2017-10-16T16:10:51.370Z,97350.50
2017-10-16T16:13:17.147Z,97354.71
2017-10-16T16:15:42.928Z,97353.94
2017-10-16T16:18:08.704Z,97354.22
2017-10-16T16:20:34.482Z,97359.67
2017-10-16T16:23:00.259Z,97361.66
2017-10-16T16:25:26.043Z,97359.03
2017-10-16T16:27:51.810Z,97365.91
2017-10-16T16:30:17.639Z,97363.80
2017-10-16T16:32:43.393Z,97361.30
2017-10-16T16:35:09.174Z,97368.33
2017-10-16T16:37:34.951Z,97362.05
2017-10-16T16:40:00.797Z,97366.05
2017-10-16T16:42:26.635Z,97365.30
2017-10-16T16:44:52.398Z,97366.10
2017-10-16T16:47:18.176Z,97367.77
2017-10-16T16:49:43.954Z,97368.56
2017-10-16T16:52:09.755Z,97371.26
2017-10-16T16:54:35.536Z,97369.38
2017-10-16T16:57:01.351Z,97370.91
2017-10-16T16:59:27.155Z,97370.78
2017-10-16T17:01:52.969Z,97369.78
2017-10-16T17:04:18.760Z,97380.32
2017-10-16T17:06:44.524Z,97383.30
2017-10-16T17:09:10.298Z,97383.77
2017-10-16T17:11:36.103Z,97387.55
2017-10-16T17:14:01.904Z,97394.96
2017-10-16T17:16:27.659Z,97393.75
2017-10-16T17:18:53.406Z,97390.67
2017-10-16T17:21:19.187Z,97386.73
2017-10-16T17:23:44.954Z,97394.73
2017-10-16T17:26:10.751Z,97390.62
2017-10-16T17:28:36.563Z,97395.23
2017-10-16T17:31:02.323Z,97397.62
2017-10-16T17:33:28.091Z,97395.10
2017-10-16T17:35:53.903Z,97407.70
2017-10-16T17:38:19.672Z,97404.91
2017-10-16T17:40:45.484Z,97408.09
2017-10-16T17:43:11.288Z,97410.02
2017-10-16T17:45:37.071Z,97407.36
2017-10-16T17:48:02.907Z,97403.79
2017-10-16T17:50:28.687Z,97407.53
2017-10-16T17:52:54.492Z,97409.78
2017-10-16T17:55:20.320Z,97412.83
2017-10-16T17:57:46.110Z,97419.20
2017-10-16T18:00:11.899Z,97414.16
2017-10-16T18:02:37.690Z,97414.79
2017-10-16T18:05:03.484Z,97415.44
2017-10-16T18:07:29.263Z,97416.87
2017-10-16T18:09:55.062Z,97413.47
2017-10-16T18:12:20.880Z,97410.91
2017-10-16T18:14:46.662Z,97411.58
2017-10-16T18:17:12.449Z,97409.72
2017-10-16T18:19:38.222Z,97407.66
2017-10-16T18:22:03.998Z,97408.44
2017-10-16T18:24:29.818Z,97408.83
2017-10-16T18:26:55.600Z,97401.11
2017-10-16T18:29:21.399Z,97406.34
2017-10-16T18:31:47.182Z,97404.05
2017-10-16T18:34:12.951Z,97402.83
2017-10-16T18:36:38.728Z,97400.23
2017-10-16T18:39:04.515Z,97400.41
2017-10-16T18:41:30.375Z,97408.97
2017-10-16T18:43:56.141Z,97406.05
2017-10-16T18:46:22.024Z,97403.66
2017-10-16T18:48:47.812Z,97406.73
2017-10-16T18:51:13.573Z,97406.49
2017-10-16T18:53:39.372Z,97408.56
2017-10-16T18:56:05.192Z,97411.68
2017-10-16T18:58:31.004Z,97407.78
2017-10-16T19:00:56.845Z,97405.74
2017-10-16T19:03:22.639Z,97406.41
2017-10-16T19:05:48.399Z,97406.97
2017-10-16T19:08:14.253Z,97406.28
2017-10-16T19:10:40.021Z,97404.79
2017-10-16T19:13:05.816Z,97398.73
2017-10-16T19:15:31.727Z,97405.05
2017-10-16T19:17:57.539Z,97404.02
2017-10-16T19:20:23.355Z,97403.64
2017-10-16T19:22:49.183Z,97399.23
2017-10-16T19:25:15.024Z,97399.60
2017-10-16T19:27:40.812Z,97407.90
2017-10-16T19:30:06.604Z,97407.48
2017-10-16T19:32:32.375Z,97414.55
2017-10-16T19:34:58.163Z,97410.59
2017-10-16T19:37:24.022Z,97407.92
2017-10-16T19:39:49.824Z,97411.20
2017-10-16T19:42:15.593Z,97405.00
2017-10-16T19:44:41.367Z,97403.12
2017-10-16T19:47:07.163Z,97405.11
2017-10-16T19:49:32.935Z,97402.30
2017-10-16T19:51:58.721Z,97403.36
2017-10-16T19:54:24.527Z,97405.94
2017-10-16T19:56:50.336Z,97405.94
2017-10-16T19:59:16.111Z,97405.55
2017-10-16T20:01:41.938Z,97403.56
2017-10-16T20:04:07.740Z,97404.88
2017-10-16T20:06:33.582Z,97405.29
2017-10-16T20:08:59.430Z,97408.19
2017-10-16T20:11:25.255Z,97407.89
2017-10-16T20:13:51.085Z,97407.06
2017-10-16T20:16:16.968Z,97406.78
2017-10-16T20:18:43.641Z,97405.24
2017-10-16T20:21:09.565Z,97403.20
2017-10-16T20:23:35.402Z,97407.50
2017-10-16T20:26:01.301Z,97402.27
2017-10-16T20:28:27.215Z,97404.41
2017-10-16T20:30:53.049Z,97403.63
2017-10-16T20:33:18.892Z,97404.19
2017-10-16T20:35:44.743Z,97400.56
2017-10-16T20:38:10.559Z,97400.38
2017-10-16T20:40:36.399Z,97398.14
2017-10-16T20:43:02.223Z,97398.36
2017-10-16T20:45:28.088Z,97397.78
2017-10-16T20:47:53.911Z,97402.52
2017-10-16T20:50:19.849Z,97403.52
2017-10-16T20:52:45.711Z,97404.66
2017-10-16T20:55:11.535Z,97407.75
2017-10-16T20:57:37.405Z,97405.26
2017-10-16T21:00:03.245Z,97406.46
2017-10-16T21:02:29.185Z,97408.90
2017-10-16T21:04:54.986Z,97408.53
2017-10-16T21:07:20.836Z,97405.48
2017-10-16T21:09:46.755Z,97405.24
2017-10-16T21:12:12.595Z,97402.41
2017-10-16T21:14:38.462Z,97397.89
2017-10-16T21:17:04.290Z,97403.54
2017-10-16T21:19:30.135Z,97406.01
2017-10-16T21:21:55.938Z,97397.39
2017-10-16T21:24:21.751Z,97398.71
2017-10-16T21:26:47.592Z,97401.37
2017-10-16T21:29:13.427Z,97400.09
2017-10-16T21:31:39.279Z,97398.95
2017-10-16T21:34:05.129Z,97401.63
2017-10-16T21:36:31.035Z,97404.50
2017-10-16T21:38:56.868Z,97406.59
2017-10-16T21:41:22.682Z,97407.13
2017-10-16T21:43:48.511Z,97402.52
2017-10-16T21:46:14.335Z,97401.31
2017-10-16T21:48:40.183Z,97396.13
2017-10-16T21:51:06.020Z,97394.52
2017-10-16T21:53:31.839Z,97397.80
2017-10-16T21:55:57.694Z,97394.98
2017-10-16T21:58:23.580Z,97404.09
2017-10-16T22:00:49.397Z,97398.38
2017-10-16T22:03:15.339Z,97397.42
2017-10-16T22:05:41.192Z,97398.38
2017-10-16T22:08:07.023Z,97396.16
2017-10-16T22:10:32.879Z,97398.19
2017-10-16T22:12:58.720Z,97390.97
2017-10-16T22:15:24.627Z,97392.45
2017-10-16T22:17:50.459Z,97394.24
2017-10-16T22:20:16.289Z,97389.24
2017-10-16T22:22:42.216Z,97386.02
2017-10-16T22:25:08.071Z,97393.91
2017-10-16T22:27:33.951Z,97393.66
2017-10-16T22:29:59.787Z,97382.52
2017-10-16T22:32:25.603Z,97380.48
2017-10-16T22:34:51.422Z,97384.23
2017-10-16T22:37:17.266Z,97376.24
2017-10-16T22:39:43.148Z,97380.73
2017-10-16T22:42:09.015Z,97376.81
2017-10-16T22:44:34.879Z,97380.84
2017-10-16T22:47:00.751Z,97379.77
2017-10-16T22:49:26.584Z,97381.45
2017-10-16T22:51:52.444Z,97381.97
2017-10-16T22:54:30.627Z,97378.30
2017-10-16T22:56:56.450Z,97378.06
2017-10-16T22:59:22.268Z,97384.95
2017-10-16T23:01:48.099Z,97377.17
2017-10-16T23:04:13.899Z,97379.11
2017-10-16T23:06:39.695Z,97380.93
2017-10-16T23:09:05.529Z,97379.02
2017-10-16T23:11:31.359Z,97378.95
2017-10-16T23:16:22.435Z,97375.77
2017-10-16T23:18:48.188Z,97379.36
2017-10-16T23:21:13.987Z,97376.56
2017-10-16T23:23:39.783Z,97381.41
2017-10-16T23:26:05.545Z,97373.77
2017-10-16T23:28:31.339Z,97373.14
2017-10-16T23:30:57.093Z,97373.50
2017-10-16T23:33:22.887Z,97370.80
2017-10-16T23:35:48.680Z,97369.27
2017-10-16T23:38:14.548Z,97368.52
2017-10-16T23:40:40.331Z,97371.55
2017-10-16T23:43:06.136Z,97368.52
2017-10-16T23:45:31.903Z,97369.39
2017-10-16T23:47:57.727Z,97367.78
2017-10-16T23:50:23.502Z,97365.07
2017-10-16T23:52:49.292Z,97369.73
2017-10-16T23:55:15.146Z,97365.27
2017-10-16T23:57:41.031Z,97360.45
